Time;durP1;ratioP1;P1;durP2;ratioP2;P2;SDS_P1;SDS_P2;PMS_P1;PMS_P2;Temp;Humidity;BMP_temperature;BMP_pressure;BME280_temperature;BME280_humidity;BME280_pressure;Samples;Min_cycle;Max_cycle;Signal;HPM_P1;HPM_P2
2023/03/18 00:00:51;;;;;;;6.27;4.50;;;;;;;;;;5088446;28;20199;-59
2023/03/18 00:03:18;;;;;;;8.67;4.67;;;;;;;;;;5095410;28;20690;-59
2023/03/18 00:05:45;;;;;;;7.07;5.07;;;;;;;;;;5107756;28;20218;-59
2023/03/18 00:08:12;;;;;;;8.70;4.53;;;;;;;;;;5094361;28;20221;-58
2023/03/18 00:10:39;;;;;;;7.07;4.27;;;;;;;;;;5099787;28;20198;-58
2023/03/18 00:13:06;;;;;;;10.77;5.23;;;;;;;;;;5105050;28;20217;-59
2023/03/18 00:15:33;;;;;;;11.10;4.53;;;;;;;;;;5110517;28;20205;-58
2023/03/18 00:18:02;;;;;;;5.63;4.27;;;;;;;;;;5109860;28;20206;-58
2023/03/18 00:20:37;;;;;;;7.27;4.57;;;;;;;;;;5100003;28;20313;-59
2023/03/18 00:23:04;;;;;;;9.27;5.10;;;;;;;;;;5107877;28;20233;-58
2023/03/18 00:25:31;;;;;;;5.27;4.33;;;;;;;;;;5104553;28;20236;-58
2023/03/18 00:27:59;;;;;;;8.23;5.07;;;;;;;;;;5092143;28;20209;-59
2023/03/18 00:30:26;;;;;;;7.00;4.37;;;;;;;;;;5095381;28;20201;-59
2023/03/18 00:32:53;;;;;;;6.87;4.30;;;;;;;;;;5080771;28;20207;-59
2023/03/18 00:35:21;;;;;;;4.93;3.77;;;;;;;;;;5101015;28;20768;-59
2023/03/18 00:37:48;;;;;;;5.03;3.70;;;;;;;;;;5102105;28;20672;-59
2023/03/18 00:40:19;;;;;;;4.10;3.70;;;;;;;;;;5108651;28;20205;-59
2023/03/18 00:42:56;;;;;;;7.87;4.43;;;;;;;;;;5092905;28;20203;-59
2023/03/18 00:45:23;;;;;;;5.60;4.07;;;;;;;;;;5106852;28;20225;-63
2023/03/18 00:47:50;;;;;;;9.43;4.50;;;;;;;;;;5104630;28;20209;-59
2023/03/18 00:50:17;;;;;;;7.60;4.60;;;;;;;;;;5105279;28;20212;-59
2023/03/18 00:52:45;;;;;;;5.23;4.10;;;;;;;;;;5096408;28;20583;-58
2023/03/18 00:55:12;;;;;;;9.23;5.33;;;;;;;;;;5099500;28;20205;-61
2023/03/18 00:57:40;;;;;;;5.23;4.07;;;;;;;;;;5093582;28;20308;-59
2023/03/18 01:00:08;;;;;;;6.20;4.50;;;;;;;;;;5098122;28;20349;-61
2023/03/18 01:02:35;;;;;;;5.77;4.37;;;;;;;;;;5088845;28;20683;-59
2023/03/18 01:05:02;;;;;;;5.37;4.20;;;;;;;;;;5107860;28;20201;-59
2023/03/18 01:07:29;;;;;;;10.10;4.97;;;;;;;;;;5102647;28;20229;-59
2023/03/18 01:09:58;;;;;;;8.93;4.63;;;;;;;;;;5089984;28;20203;-59
2023/03/18 01:12:28;;;;;;;6.80;4.27;;;;;;;;;;5090095;28;20209;-59
2023/03/18 01:14:56;;;;;;;7.50;4.60;;;;;;;;;;5107970;28;20206;-59
2023/03/18 01:17:24;;;;;;;4.97;4.47;;;;;;;;;;5107445;28;20202;-59
2023/03/18 01:19:51;;;;;;;7.03;4.43;;;;;;;;;;5103200;28;20285;-59
2023/03/18 01:22:19;;;;;;;4.40;4.00;;;;;;;;;;5093017;28;20287;-59
2023/03/18 01:24:46;;;;;;;5.93;4.23;;;;;;;;;;5091015;28;20214;-59
2023/03/18 01:27:14;;;;;;;4.13;3.83;;;;;;;;;;5095681;28;20775;-59
2023/03/18 01:29:41;;;;;;;5.17;4.47;;;;;;;;;;5107333;28;20259;-59
2023/03/18 01:32:08;;;;;;;5.93;4.33;;;;;;;;;;5098015;28;20206;-59
2023/03/18 01:34:35;;;;;;;6.03;4.00;;;;;;;;;;5098255;28;20687;-59
2023/03/18 01:37:02;;;;;;;5.20;3.93;;;;;;;;;;5100444;28;20210;-59
2023/03/18 01:39:29;;;;;;;4.67;4.00;;;;;;;;;;5089490;28;20267;-59
2023/03/18 01:41:57;;;;;;;4.37;3.60;;;;;;;;;;5096130;28;20554;-59
2023/03/18 01:44:26;;;;;;;5.90;5.00;;;;;;;;;;5100135;28;20274;-59
2023/03/18 01:46:53;;;;;;;6.97;4.00;;;;;;;;;;5103527;28;20228;-59
2023/03/18 01:49:21;;;;;;;4.83;3.13;;;;;;;;;;5093215;28;20213;-60
2023/03/18 01:51:50;;;;;;;4.80;3.50;;;;;;;;;;5086084;28;20782;-59
2023/03/18 01:54:19;;;;;;;5.53;4.23;;;;;;;;;;5098382;28;20300;-59
2023/03/18 01:56:49;;;;;;;5.20;4.07;;;;;;;;;;5089707;28;20194;-59
2023/03/18 01:59:16;;;;;;;7.63;4.07;;;;;;;;;;5087562;28;20213;-59
2023/03/18 02:01:46;;;;;;;3.83;3.50;;;;;;;;;;5093935;28;20759;-59
2023/03/18 02:04:13;;;;;;;4.27;3.70;;;;;;;;;;5100284;28;20209;-59
2023/03/18 02:06:41;;;;;;;9.20;4.20;;;;;;;;;;5088872;28;20344;-59
2023/03/18 02:09:08;;;;;;;5.20;4.00;;;;;;;;;;5088197;28;20206;-60
2023/03/18 02:11:37;;;;;;;5.13;4.60;;;;;;;;;;5104403;28;20202;-60
2023/03/18 02:14:04;;;;;;;4.67;4.20;;;;;;;;;;5101831;28;20225;-59
2023/03/18 02:16:34;;;;;;;5.83;4.27;;;;;;;;;;5108866;28;20258;-59
2023/03/18 02:19:10;;;;;;;6.83;4.50;;;;;;;;;;5096185;28;20216;-59
2023/03/18 02:21:41;;;;;;;5.23;4.40;;;;;;;;;;5089246;28;20333;-59
2023/03/18 02:24:12;;;;;;;4.23;3.83;;;;;;;;;;5095438;28;20241;-59
2023/03/18 02:26:43;;;;;;;4.70;3.87;;;;;;;;;;5093322;28;20217;-59
2023/03/18 02:29:13;;;;;;;4.60;4.20;;;;;;;;;;5107175;28;20288;-59
2023/03/18 02:31:41;;;;;;;5.60;4.40;;;;;;;;;;5092787;28;20233;-59
2023/03/18 02:34:09;;;;;;;5.90;4.03;;;;;;;;;;5094815;28;20213;-59
2023/03/18 02:36:36;;;;;;;4.47;4.10;;;;;;;;;;5107035;28;20198;-59
2023/03/18 02:39:04;;;;;;;6.23;4.77;;;;;;;;;;5100486;28;20214;-60
2023/03/18 02:41:33;;;;;;;4.53;3.93;;;;;;;;;;5081292;28;20209;-60
2023/03/18 02:44:01;;;;;;;4.97;4.20;;;;;;;;;;5090070;28;20502;-59
2023/03/18 02:46:32;;;;;;;4.37;3.33;;;;;;;;;;5108373;28;20225;-60
2023/03/18 02:48:59;;;;;;;7.90;3.77;;;;;;;;;;5107326;28;20762;-59
2023/03/18 02:51:27;;;;;;;4.73;4.07;;;;;;;;;;5088042;28;20202;-59
2023/03/18 02:56:59;;;;;;;4.93;3.33;;;;;;;;;;5089574;28;20201;-59
2023/03/18 02:59:26;;;;;;;4.50;3.40;;;;;;;;;;5090431;28;20201;-59
2023/03/18 03:01:56;;;;;;;3.97;3.67;;;;;;;;;;5092419;28;20206;-59
2023/03/18 03:04:23;;;;;;;6.60;3.50;;;;;;;;;;5106704;28;20233;-59
2023/03/18 03:06:51;;;;;;;4.03;3.60;;;;;;;;;;5100577;28;20277;-59
2023/03/18 03:09:20;;;;;;;4.80;4.07;;;;;;;;;;5070688;28;20264;-59
2023/03/18 03:11:47;;;;;;;6.23;4.27;;;;;;;;;;5088537;28;20210;-59
2023/03/18 03:14:15;;;;;;;5.93;3.90;;;;;;;;;;5088956;28;20206;-59
2023/03/18 03:16:42;;;;;;;8.00;3.63;;;;;;;;;;5101603;28;20377;-59
2023/03/18 03:19:11;;;;;;;4.13;3.70;;;;;;;;;;5088138;28;20287;-59
2023/03/18 03:21:38;;;;;;;4.13;3.73;;;;;;;;;;5095965;28;20303;-60
2023/03/18 03:24:05;;;;;;;5.70;3.70;;;;;;;;;;5097086;28;20213;-59
2023/03/18 03:26:33;;;;;;;3.23;2.93;;;;;;;;;;5094302;28;20704;-59
2023/03/18 03:29:00;;;;;;;4.50;3.83;;;;;;;;;;5087624;28;20199;-60
2023/03/18 03:31:27;;;;;;;4.80;3.67;;;;;;;;;;5089861;28;20302;-60
2023/03/18 03:33:54;;;;;;;4.30;3.53;;;;;;;;;;5107706;28;20663;-60
2023/03/18 03:36:22;;;;;;;3.70;3.37;;;;;;;;;;5105449;28;20292;-60
2023/03/18 03:38:49;;;;;;;4.23;3.63;;;;;;;;;;5107246;28;20198;-59
2023/03/18 03:41:17;;;;;;;4.17;3.70;;;;;;;;;;5105900;28;20293;-60
2023/03/18 03:43:44;;;;;;;4.33;3.93;;;;;;;;;;5096113;28;20285;-59
2023/03/18 03:46:31;;;;;;;7.30;4.23;;;;;;;;;;5087672;28;20840;-59
2023/03/18 03:48:58;;;;;;;4.30;3.90;;;;;;;;;;5067569;28;20218;-59
2023/03/18 03:51:26;;;;;;;5.27;3.93;;;;;;;;;;5078532;28;20210;-60
2023/03/18 03:53:54;;;;;;;4.17;3.70;;;;;;;;;;5088800;28;20838;-60
2023/03/18 03:56:21;;;;;;;6.50;3.77;;;;;;;;;;5087031;28;20232;-59
2023/03/18 03:58:48;;;;;;;3.40;3.10;;;;;;;;;;5104905;28;20208;-59
2023/03/18 04:01:15;;;;;;;6.43;4.10;;;;;;;;;;5088887;28;20213;-60
2023/03/18 04:03:42;;;;;;;4.90;4.00;;;;;;;;;;5105339;28;20594;-58
2023/03/18 04:06:10;;;;;;;4.63;3.97;;;;;;;;;;5091339;28;20240;-59
2023/03/18 04:08:38;;;;;;;7.27;4.10;;;;;;;;;;5087344;28;20206;-59
2023/03/18 04:11:05;;;;;;;4.03;3.63;;;;;;;;;;5096315;28;20202;-58
2023/03/18 04:13:32;;;;;;;5.00;3.73;;;;;;;;;;5094514;28;20202;-59
2023/03/18 04:15:59;;;;;;;4.50;3.97;;;;;;;;;;5092732;28;20205;-59
2023/03/18 04:18:26;;;;;;;6.57;4.00;;;;;;;;;;5086133;28;20281;-58
2023/03/18 04:20:54;;;;;;;3.37;2.97;;;;;;;;;;5083792;28;20206;-61
2023/03/18 04:23:21;;;;;;;4.33;3.70;;;;;;;;;;5083145;28;20814;-59
2023/03/18 04:25:50;;;;;;;4.30;3.87;;;;;;;;;;5087951;28;20210;-61
2023/03/18 04:28:17;;;;;;;4.10;3.80;;;;;;;;;;5089506;28;20205;-60
2023/03/18 04:30:44;;;;;;;4.47;4.07;;;;;;;;;;5089492;28;20195;-59
2023/03/18 04:33:11;;;;;;;5.83;3.97;;;;;;;;;;5092789;28;20218;-60
2023/03/18 04:35:38;;;;;;;5.67;4.03;;;;;;;;;;5084282;28;20209;-60
2023/03/18 04:38:05;;;;;;;4.03;3.70;;;;;;;;;;5083908;28;20340;-60
2023/03/18 04:40:32;;;;;;;4.17;3.80;;;;;;;;;;5085820;28;20248;-60
2023/03/18 04:43:01;;;;;;;4.00;3.70;;;;;;;;;;5087712;28;20285;-60
2023/03/18 04:45:28;;;;;;;4.43;3.97;;;;;;;;;;5085993;28;20206;-60
2023/03/18 04:47:55;;;;;;;4.33;3.93;;;;;;;;;;5083837;28;20808;-60
2023/03/18 04:50:22;;;;;;;3.63;3.43;;;;;;;;;;5089749;28;20259;-60
2023/03/18 04:52:50;;;;;;;4.50;4.03;;;;;;;;;;5090970;28;20198;-60
2023/03/18 04:55:19;;;;;;;5.20;3.87;;;;;;;;;;5088596;28;20204;-60
2023/03/18 04:57:47;;;;;;;4.13;3.83;;;;;;;;;;5088658;28;20297;-60
2023/03/18 05:00:17;;;;;;;6.13;4.33;;;;;;;;;;5090392;28;20202;-60
2023/03/18 05:02:44;;;;;;;4.00;3.57;;;;;;;;;;5089923;28;20234;-60
2023/03/18 05:05:11;;;;;;;4.00;3.60;;;;;;;;;;5088618;28;20252;-61
2023/03/18 05:07:38;;;;;;;5.80;4.27;;;;;;;;;;5089454;28;20283;-61
2023/03/18 05:10:06;;;;;;;5.47;3.90;;;;;;;;;;5085009;28;20206;-60
2023/03/18 05:12:33;;;;;;;5.77;4.27;;;;;;;;;;5089763;28;20214;-60
2023/03/18 05:15:00;;;;;;;7.33;4.37;;;;;;;;;;5091685;28;20550;-60
2023/03/18 05:17:29;;;;;;;4.80;3.83;;;;;;;;;;5110990;28;20259;-60
2023/03/18 05:19:56;;;;;;;4.30;3.90;;;;;;;;;;5099259;28;20272;-61
2023/03/18 05:22:23;;;;;;;4.77;3.17;;;;;;;;;;5093175;28;20237;-60
2023/03/18 05:24:50;;;;;;;5.10;3.77;;;;;;;;;;5110643;28;20202;-61
2023/03/18 05:27:18;;;;;;;5.00;4.07;;;;;;;;;;5104555;28;20226;-60
2023/03/18 05:29:45;;;;;;;5.67;3.77;;;;;;;;;;5104639;28;20202;-60
2023/03/18 05:32:13;;;;;;;4.10;3.73;;;;;;;;;;5093535;28;20202;-60
2023/03/18 05:34:41;;;;;;;4.43;3.70;;;;;;;;;;5093276;28;20578;-61
2023/03/18 05:37:09;;;;;;;6.27;4.30;;;;;;;;;;5095907;28;20260;-60
2023/03/18 05:39:37;;;;;;;8.23;4.03;;;;;;;;;;5107888;28;20309;-60
2023/03/18 05:42:05;;;;;;;7.27;4.53;;;;;;;;;;5093015;28;20202;-60
2023/03/18 05:44:32;;;;;;;5.37;3.93;;;;;;;;;;5089380;28;20252;-58
2023/03/18 05:47:00;;;;;;;4.20;3.53;;;;;;;;;;5094388;28;20223;-60
2023/03/18 05:49:27;;;;;;;4.57;3.67;;;;;;;;;;5104098;28;20799;-59
2023/03/18 05:51:56;;;;;;;8.00;4.17;;;;;;;;;;5109786;28;20206;-59
2023/03/18 05:54:23;;;;;;;9.47;3.93;;;;;;;;;;5101656;28;20672;-59
2023/03/18 05:56:51;;;;;;;4.77;4.33;;;;;;;;;;5104360;28;20748;-59
2023/03/18 05:59:18;;;;;;;7.50;4.13;;;;;;;;;;5096779;28;20213;-59
2023/03/18 06:01:46;;;;;;;8.70;4.20;;;;;;;;;;5088869;28;20207;-59
2023/03/18 06:04:14;;;;;;;5.57;4.17;;;;;;;;;;5069566;28;20276;-59
2023/03/18 06:06:42;;;;;;;5.33;4.07;;;;;;;;;;5086613;28;20206;-59
2023/03/18 06:09:11;;;;;;;4.07;3.77;;;;;;;;;;5096158;28;20205;-59
2023/03/18 06:11:39;;;;;;;4.80;4.30;;;;;;;;;;5093491;28;20701;-59
2023/03/18 06:14:06;;;;;;;4.70;4.23;;;;;;;;;;5090393;28;20210;-59
2023/03/18 06:16:34;;;;;;;4.33;3.97;;;;;;;;;;5100270;28;20206;-74
2023/03/18 06:19:02;;;;;;;8.07;3.70;;;;;;;;;;5104301;28;20275;-60
2023/03/18 06:21:30;;;;;;;5.30;4.23;;;;;;;;;;5086573;28;20222;-60
2023/03/18 06:23:57;;;;;;;6.10;3.87;;;;;;;;;;5095105;28;20198;-60
2023/03/18 06:26:26;;;;;;;4.30;3.90;;;;;;;;;;5102024;28;20214;-60
2023/03/18 06:28:53;;;;;;;4.80;4.10;;;;;;;;;;5091005;28;20365;-60
2023/03/18 06:31:21;;;;;;;3.67;3.13;;;;;;;;;;5089016;28;20291;-59
2023/03/18 06:33:48;;;;;;;5.27;3.70;;;;;;;;;;5080392;28;20246;-58
2023/03/18 06:36:15;;;;;;;4.33;3.93;;;;;;;;;;5095321;28;20278;-61
2023/03/18 06:38:43;;;;;;;4.73;4.10;;;;;;;;;;5088726;28;20259;-58
2023/03/18 06:41:10;;;;;;;4.40;4.00;;;;;;;;;;5096593;28;20201;-58
2023/03/18 06:43:39;;;;;;;5.93;4.43;;;;;;;;;;5105358;28;20513;-58
2023/03/18 06:46:06;;;;;;;5.03;4.30;;;;;;;;;;5097925;28;20710;-59
2023/03/18 06:48:34;;;;;;;4.57;4.10;;;;;;;;;;5091356;28;20250;-59
2023/03/18 06:51:01;;;;;;;6.03;3.97;;;;;;;;;;5107082;28;20308;-59
2023/03/18 06:53:28;;;;;;;7.00;4.97;;;;;;;;;;5106744;28;20213;-59
2023/03/18 06:55:55;;;;;;;4.00;3.70;;;;;;;;;;5101437;28;20617;-58
2023/03/18 06:58:23;;;;;;;4.73;3.90;;;;;;;;;;5088567;28;20217;-59
2023/03/18 07:00:52;;;;;;;4.87;4.07;;;;;;;;;;5092350;28;20198;-59
2023/03/18 07:03:20;;;;;;;7.03;4.63;;;;;;;;;;5088290;28;20202;-59
2023/03/18 07:05:47;;;;;;;5.20;4.63;;;;;;;;;;5092972;28;20600;-58
2023/03/18 07:08:15;;;;;;;6.50;4.10;;;;;;;;;;5089704;28;20234;-58
2023/03/18 07:10:42;;;;;;;4.73;4.33;;;;;;;;;;5077371;28;20547;-59
2023/03/18 07:13:11;;;;;;;4.60;3.77;;;;;;;;;;5088131;28;20198;-59
2023/03/18 07:15:39;;;;;;;5.00;4.23;;;;;;;;;;5088246;28;20232;-59
2023/03/18 07:18:08;;;;;;;6.27;4.83;;;;;;;;;;5088460;28;20304;-59
2023/03/18 07:20:36;;;;;;;7.93;4.50;;;;;;;;;;5088103;28;20214;-59
2023/03/18 07:23:03;;;;;;;8.83;4.47;;;;;;;;;;5087609;28;20375;-58
2023/03/18 07:25:31;;;;;;;6.40;4.90;;;;;;;;;;5104486;28;20212;-58
2023/03/18 07:27:59;;;;;;;7.33;5.13;;;;;;;;;;5088009;28;20525;-60
2023/03/18 07:30:26;;;;;;;5.23;4.73;;;;;;;;;;5088325;28;20275;-61
2023/03/18 07:32:53;;;;;;;5.40;4.90;;;;;;;;;;5086359;28;20206;-61
2023/03/18 07:35:21;;;;;;;10.10;5.17;;;;;;;;;;5076831;28;20206;-61
2023/03/18 07:37:48;;;;;;;6.13;4.97;;;;;;;;;;5089026;28;20203;-58
2023/03/18 07:40:15;;;;;;;5.83;5.23;;;;;;;;;;5103954;28;20288;-60
2023/03/18 07:42:42;;;;;;;6.23;5.03;;;;;;;;;;5089571;28;20256;-60
2023/03/18 07:45:10;;;;;;;5.43;4.70;;;;;;;;;;5088327;28;20739;-58
2023/03/18 07:47:37;;;;;;;7.87;4.70;;;;;;;;;;5104626;28;20225;-58
2023/03/18 07:50:05;;;;;;;5.73;4.23;;;;;;;;;;5107824;28;20209;-60
2023/03/18 07:52:33;;;;;;;8.87;5.00;;;;;;;;;;5096909;28;20205;-60
2023/03/18 07:55:00;;;;;;;4.27;3.93;;;;;;;;;;5087828;28;20292;-61
2023/03/18 07:57:27;;;;;;;6.37;4.00;;;;;;;;;;5102598;28;20231;-61
2023/03/18 07:59:55;;;;;;;6.60;3.80;;;;;;;;;;5094972;28;20210;-60
2023/03/18 08:02:22;;;;;;;5.23;3.80;;;;;;;;;;5076848;28;20302;-60
2023/03/18 08:04:50;;;;;;;4.17;3.77;;;;;;;;;;5080949;28;20199;-60
2023/03/18 08:07:17;;;;;;;5.37;3.80;;;;;;;;;;5095698;28;20205;-60
2023/03/18 08:09:45;;;;;;;4.20;3.77;;;;;;;;;;5103203;28;20200;-60
2023/03/18 08:12:13;;;;;;;3.83;3.53;;;;;;;;;;5072122;28;20206;-60
2023/03/18 08:14:40;;;;;;;4.27;3.97;;;;;;;;;;5103384;28;20203;-60
2023/03/18 08:17:07;;;;;;;5.47;3.50;;;;;;;;;;5091595;28;20856;-58
2023/03/18 08:19:35;;;;;;;4.77;3.80;;;;;;;;;;5103681;28;20319;-58
2023/03/18 08:22:11;;;;;;;3.77;3.43;;;;;;;;;;5089417;28;20720;-59
2023/03/18 08:24:38;;;;;;;3.93;3.53;;;;;;;;;;5090477;28;20275;-59
2023/03/18 08:27:13;;;;;;;4.27;3.87;;;;;;;;;;5097080;28;20209;-59
2023/03/18 08:29:40;;;;;;;6.30;3.77;;;;;;;;;;5108364;28;20205;-59
2023/03/18 08:32:07;;;;;;;5.07;3.80;;;;;;;;;;5090172;28;20214;-59
2023/03/18 08:34:34;;;;;;;4.70;3.90;;;;;;;;;;5101217;28;20292;-59
2023/03/18 08:37:01;;;;;;;4.37;3.00;;;;;;;;;;5094550;28;20224;-59
2023/03/18 08:39:28;;;;;;;4.37;2.90;;;;;;;;;;5101032;28;20221;-59
2023/03/18 08:41:55;;;;;;;3.28;3.03;;;;;;;;;;5086347;28;20595;-59
2023/03/18 08:44:24;;;;;;;4.70;3.50;;;;;;;;;;5090458;28;20202;-61
2023/03/18 08:46:51;;;;;;;3.00;2.80;;;;;;;;;;5090874;28;20251;-60
2023/03/18 08:49:18;;;;;;;3.05;2.85;;;;;;;;;;5089857;28;20708;-60
2023/03/18 08:51:46;;;;;;;2.50;2.33;;;;;;;;;;5088279;28;20199;-62
2023/03/18 08:54:13;;;;;;;2.25;2.15;;;;;;;;;;5089890;28;20584;-61
2023/03/18 08:56:41;;;;;;;2.67;2.47;;;;;;;;;;5090865;28;20214;-63
2023/03/18 08:59:08;;;;;;;2.83;2.63;;;;;;;;;;5104517;28;20218;-62
2023/03/18 09:01:37;;;;;;;4.07;2.65;;;;;;;;;;5088559;28;20252;-61
2023/03/18 09:04:04;;;;;;;5.22;3.30;;;;;;;;;;5088900;28;20218;-61
2023/03/18 09:06:31;;;;;;;3.30;3.10;;;;;;;;;;5093084;28;20210;-60
2023/03/18 09:09:02;;;;;;;4.35;3.08;;;;;;;;;;5110066;28;20222;-60
2023/03/18 09:11:29;;;;;;;3.10;2.80;;;;;;;;;;5102252;28;20802;-60
2023/03/18 09:13:56;;;;;;;2.72;2.53;;;;;;;;;;5099951;28;20209;-60
2023/03/18 09:16:23;;;;;;;4.25;1.92;;;;;;;;;;5092307;28;20225;-61
2023/03/18 09:18:52;;;;;;;6.93;2.78;;;;;;;;;;5109380;28;20202;-60
2023/03/18 09:21:19;;;;;;;1.80;1.67;;;;;;;;;;5096630;28;20875;-60
2023/03/18 09:23:46;;;;;;;3.75;1.58;;;;;;;;;;5088106;28;20241;-60
2023/03/18 09:26:13;;;;;;;4.68;2.00;;;;;;;;;;5088416;28;20680;-60
2023/03/18 09:28:41;;;;;;;3.55;2.38;;;;;;;;;;5090341;28;20221;-60
2023/03/18 09:31:08;;;;;;;2.05;1.80;;;;;;;;;;5099548;28;20198;-61
2023/03/18 09:33:35;;;;;;;1.30;1.30;;;;;;;;;;5097059;28;20201;-59
2023/03/18 09:36:04;;;;;;;1.42;1.42;;;;;;;;;;5104087;28;20205;-59
2023/03/18 09:38:32;;;;;;;1.88;1.77;;;;;;;;;;5100754;28;20283;-59
2023/03/18 09:41:08;;;;;;;0.95;0.95;;;;;;;;;;5089565;28;20203;-59
2023/03/18 09:43:48;;;;;;;0.90;0.90;;;;;;;;;;5089889;28;20369;-59
2023/03/18 09:46:22;;;;;;;0.95;0.95;;;;;;;;;;5075112;28;20850;-59
2023/03/18 09:48:55;;;;;;;1.15;1.15;;;;;;;;;;5087718;28;20233;-59
2023/03/18 09:51:33;;;;;;;1.70;1.60;;;;;;;;;;5094509;28;20207;-61
2023/03/18 09:54:03;;;;;;;1.63;1.15;;;;;;;;;;5089894;28;20217;-59
2023/03/18 09:56:33;;;;;;;3.05;1.20;;;;;;;;;;5092089;28;20931;-59
2023/03/18 09:59:02;;;;;;;1.77;1.40;;;;;;;;;;5088682;28;20193;-60
2023/03/18 10:01:29;;;;;;;1.85;1.55;;;;;;;;;;5095430;28;20703;-60
2023/03/18 10:04:00;;;;;;;1.75;1.50;;;;;;;;;;5087294;28;20218;-60
2023/03/18 10:06:31;;;;;;;3.50;1.48;;;;;;;;;;5091955;28;20209;-60
2023/03/18 10:09:01;;;;;;;1.52;1.08;;;;;;;;;;5088704;28;20233;-60
2023/03/18 10:11:34;;;;;;;1.42;1.33;;;;;;;;;;5099187;27;20289;-60
2023/03/18 10:14:09;;;;;;;2.05;1.40;;;;;;;;;;5085823;28;20218;-60
2023/03/18 10:16:45;;;;;;;1.27;1.27;;;;;;;;;;5088110;28;20205;-60
2023/03/18 10:19:12;;;;;;;1.33;1.20;;;;;;;;;;5078690;28;20209;-60
2023/03/18 10:21:45;;;;;;;1.13;1.13;;;;;;;;;;5088389;28;20729;-62
2023/03/18 10:24:20;;;;;;;1.00;1.00;;;;;;;;;;5088674;28;20686;-60
2023/03/18 10:26:49;;;;;;;1.10;1.10;;;;;;;;;;5090701;28;20240;-60
2023/03/18 10:29:29;;;;;;;1.98;1.77;;;;;;;;;;5091798;28;21023;-60
2023/03/18 10:32:03;;;;;;;4.82;2.72;;;;;;;;;;5088528;28;20213;-61
2023/03/18 10:34:34;;;;;;;1.35;1.33;;;;;;;;;;5089964;28;20202;-60
2023/03/18 10:37:05;;;;;;;1.10;1.10;;;;;;;;;;5088420;28;20221;-60
2023/03/18 10:39:33;;;;;;;4.80;1.30;;;;;;;;;;5089454;28;20194;-60
2023/03/18 10:42:01;;;;;;;2.17;1.05;;;;;;;;;;5099093;28;20735;-60
2023/03/18 10:44:29;;;;;;;1.38;1.00;;;;;;;;;;5107067;28;20201;-60
2023/03/18 10:46:59;;;;;;;2.30;1.15;;;;;;;;;;5104575;28;20209;-60
2023/03/18 10:49:28;;;;;;;3.22;1.70;;;;;;;;;;5106706;28;20280;-60
2023/03/18 10:51:56;;;;;;;2.92;1.20;;;;;;;;;;5080612;28;20289;-60
2023/03/18 10:54:27;;;;;;;1.10;1.10;;;;;;;;;;5089377;28;20206;-60
2023/03/18 10:56:55;;;;;;;1.60;1.30;;;;;;;;;;5085786;28;20311;-60
2023/03/18 10:59:23;;;;;;;2.78;2.05;;;;;;;;;;5085360;28;20209;-60
2023/03/18 11:01:54;;;;;;;3.28;1.10;;;;;;;;;;5089064;28;20271;-60
2023/03/18 11:04:23;;;;;;;1.90;1.27;;;;;;;;;;5106161;28;20210;-60
2023/03/18 11:06:52;;;;;;;1.08;1.02;;;;;;;;;;5094270;28;20206;-59
2023/03/18 11:09:21;;;;;;;3.70;1.15;;;;;;;;;;5087625;28;20316;-60
2023/03/18 11:11:49;;;;;;;2.00;1.38;;;;;;;;;;5092133;28;20286;-60
2023/03/18 11:14:19;;;;;;;2.80;1.20;;;;;;;;;;5101998;28;20210;-60
2023/03/18 11:16:49;;;;;;;2.10;0.80;;;;;;;;;;5093768;28;20205;-60
2023/03/18 11:19:34;;;;;;;1.58;0.90;;;;;;;;;;5099799;28;20216;-60
2023/03/18 11:22:06;;;;;;;1.80;1.10;;;;;;;;;;5093996;28;20628;-60
2023/03/18 11:24:38;;;;;;;4.68;1.00;;;;;;;;;;5087410;28;20301;-60
2023/03/18 11:27:22;;;;;;;0.90;0.90;;;;;;;;;;5087126;28;20206;-60
2023/03/18 11:29:51;;;;;;;0.70;0.70;;;;;;;;;;5088693;28;20217;-60
2023/03/18 11:32:24;;;;;;;1.15;1.13;;;;;;;;;;5094482;28;20871;-60
2023/03/18 11:34:56;;;;;;;0.77;0.63;;;;;;;;;;5103974;28;20210;-60
2023/03/18 11:37:26;;;;;;;1.30;1.30;;;;;;;;;;5094356;28;20210;-60
2023/03/18 11:39:53;;;;;;;1.15;1.13;;;;;;;;;;5101341;28;20205;-60
2023/03/18 11:42:23;;;;;;;0.80;0.80;;;;;;;;;;5094090;28;20198;-60
2023/03/18 11:44:55;;;;;;;0.95;0.95;;;;;;;;;;5092604;28;20613;-60
2023/03/18 11:47:24;;;;;;;1.63;1.05;;;;;;;;;;5089092;28;20230;-60
2023/03/18 11:49:51;;;;;;;1.02;0.80;;;;;;;;;;5096236;28;20295;-60
2023/03/18 11:52:30;;;;;;;0.90;0.90;;;;;;;;;;5086895;28;20280;-60
2023/03/18 11:55:04;;;;;;;2.63;1.02;;;;;;;;;;5092559;28;20202;-60
2023/03/18 11:57:35;;;;;;;0.80;0.80;;;;;;;;;;5098554;28;20581;-60
2023/03/18 12:00:16;;;;;;;1.35;1.15;;;;;;;;;;5096165;28;20202;-60
2023/03/18 12:02:51;;;;;;;1.25;0.90;;;;;;;;;;5097840;28;20202;-60
2023/03/18 12:05:36;;;;;;;2.22;0.77;;;;;;;;;;5091490;28;20688;-60
2023/03/18 12:08:06;;;;;;;2.25;1.10;;;;;;;;;;5090863;28;20225;-60
2023/03/18 12:10:35;;;;;;;4.47;1.20;;;;;;;;;;5100269;28;20228;-59
2023/03/18 12:13:12;;;;;;;0.60;0.60;;;;;;;;;;5088723;28;20206;-60
2023/03/18 12:15:46;;;;;;;1.48;0.73;;;;;;;;;;5092217;28;20226;-60
2023/03/18 12:18:23;;;;;;;3.95;1.10;;;;;;;;;;5090228;28;20586;-60
2023/03/18 12:20:51;;;;;;;1.95;0.85;;;;;;;;;;5099391;28;20614;-60
2023/03/18 12:23:28;;;;;;;0.80;0.80;;;;;;;;;;5093927;28;20238;-60
2023/03/18 12:25:59;;;;;;;1.08;0.93;;;;;;;;;;5090531;28;20209;-60
2023/03/18 12:28:41;;;;;;;1.05;0.90;;;;;;;;;;5090278;28;20217;-60
2023/03/18 12:31:34;;;;;;;0.80;0.80;;;;;;;;;;5098565;28;20837;-60
2023/03/18 12:34:02;;;;;;;0.70;0.70;;;;;;;;;;5090685;28;20218;-61
2023/03/18 12:36:41;;;;;;;0.70;0.70;;;;;;;;;;5096140;28;20222;-60
2023/03/18 12:39:32;;;;;;;0.93;0.80;;;;;;;;;;5089890;28;20677;-61
2023/03/18 12:42:02;;;;;;;1.05;0.90;;;;;;;;;;5101612;28;20218;-60
2023/03/18 12:44:38;;;;;;;0.70;0.70;;;;;;;;;;5084070;28;20244;-60
2023/03/18 12:47:09;;;;;;;1.65;0.95;;;;;;;;;;5090172;28;20206;-60
2023/03/18 12:49:38;;;;;;;1.75;0.80;;;;;;;;;;5090468;28;20234;-61
2023/03/18 12:52:06;;;;;;;2.67;1.00;;;;;;;;;;5092975;28;20617;-60
2023/03/18 12:54:37;;;;;;;0.60;0.60;;;;;;;;;;5101585;28;20213;-60
2023/03/18 12:57:07;;;;;;;1.45;0.70;;;;;;;;;;5088906;28;20331;-60
2023/03/18 12:59:36;;;;;;;1.70;0.82;;;;;;;;;;5103206;28;20667;-64
2023/03/18 13:02:13;;;;;;;0.80;0.70;;;;;;;;;;5096727;28;20209;-60
2023/03/18 13:04:43;;;;;;;3.28;0.80;;;;;;;;;;5090215;28;20202;-61
2023/03/18 13:07:15;;;;;;;1.33;0.98;;;;;;;;;;5090600;28;20255;-60
2023/03/18 13:09:44;;;;;;;3.60;0.80;;;;;;;;;;5083485;28;20249;-62
2023/03/18 13:12:13;;;;;;;0.75;0.75;;;;;;;;;;5103194;28;20663;-61
2023/03/18 13:14:44;;;;;;;1.80;0.90;;;;;;;;;;5096356;28;20465;-61
2023/03/18 13:17:14;;;;;;;1.60;0.65;;;;;;;;;;5102821;28;20724;-60
2023/03/18 13:19:42;;;;;;;0.55;0.55;;;;;;;;;;5089177;28;20636;-61
2023/03/18 13:22:15;;;;;;;1.30;1.20;;;;;;;;;;5091507;28;20307;-61
2023/03/18 13:25:00;;;;;;;0.80;0.80;;;;;;;;;;5090223;28;20645;-61
2023/03/18 13:27:42;;;;;;;3.45;0.80;;;;;;;;;;5098059;28;20292;-60
2023/03/18 13:30:15;;;;;;;0.52;0.52;;;;;;;;;;5089886;28;20234;-60
2023/03/18 13:32:49;;;;;;;0.60;0.60;;;;;;;;;;5091677;28;20237;-61
2023/03/18 13:35:23;;;;;;;4.10;0.68;;;;;;;;;;5089635;28;20300;-60
2023/03/18 13:38:03;;;;;;;0.70;0.70;;;;;;;;;;5089729;28;20214;-59
2023/03/18 13:40:40;;;;;;;0.70;0.70;;;;;;;;;;5096232;28;20201;-60
2023/03/18 13:43:12;;;;;;;3.10;0.90;;;;;;;;;;5105533;28;20753;-60
2023/03/18 13:45:40;;;;;;;1.70;0.80;;;;;;;;;;5089737;28;20264;-60
2023/03/18 13:48:10;;;;;;;0.50;0.50;;;;;;;;;;5090109;28;20198;-61
2023/03/18 13:50:38;;;;;;;0.75;0.75;;;;;;;;;;5109843;28;20233;-61
2023/03/18 13:53:06;;;;;;;2.03;1.92;;;;;;;;;;5092345;28;20290;-61
2023/03/18 13:55:34;;;;;;;1.50;1.40;;;;;;;;;;5089447;28;20206;-61
2023/03/18 13:58:09;;;;;;;1.20;0.88;;;;;;;;;;5089042;28;20206;-61
2023/03/18 14:00:39;;;;;;;1.05;1.05;;;;;;;;;;5089378;28;20267;-61
2023/03/18 14:03:19;;;;;;;1.30;1.00;;;;;;;;;;5092058;28;20214;-60
2023/03/18 14:05:46;;;;;;;0.98;0.75;;;;;;;;;;5089811;28;20223;-61
2023/03/18 14:08:32;;;;;;;1.15;1.15;;;;;;;;;;5098738;28;20213;-60
2023/03/18 14:11:29;;;;;;;1.85;0.90;;;;;;;;;;5108692;28;20769;-61
2023/03/18 14:13:59;;;;;;;0.68;0.68;;;;;;;;;;5025844;28;20220;-61
2023/03/18 14:16:28;;;;;;;2.97;2.10;;;;;;;;;;5075689;28;20214;-61
2023/03/18 14:18:58;;;;;;;1.88;1.70;;;;;;;;;;5088313;28;20267;-61
2023/03/18 14:21:27;;;;;;;1.88;1.48;;;;;;;;;;5091548;28;20252;-60
2023/03/18 14:24:03;;;;;;;1.75;1.00;;;;;;;;;;5106367;28;20883;-60
2023/03/18 14:26:31;;;;;;;0.82;0.82;;;;;;;;;;5095270;28;20229;-60
2023/03/18 14:29:15;;;;;;;1.77;1.10;;;;;;;;;;5094945;28;20204;-61
2023/03/18 14:31:56;;;;;;;3.75;1.30;;;;;;;;;;5108760;28;20280;-61
2023/03/18 14:34:26;;;;;;;1.23;1.15;;;;;;;;;;5066052;28;20214;-60
2023/03/18 14:37:24;;;;;;;1.17;1.10;;;;;;;;;;5085573;28;20217;-60
2023/03/18 14:39:53;;;;;;;1.10;1.00;;;;;;;;;;5092834;28;20293;-60
2023/03/18 14:42:27;;;;;;;3.22;1.23;;;;;;;;;;5077229;28;20259;-60
2023/03/18 14:44:55;;;;;;;2.08;1.52;;;;;;;;;;5098127;28;20289;-62
2023/03/18 14:47:25;;;;;;;2.38;1.20;;;;;;;;;;5105336;28;20206;-60
2023/03/18 14:49:56;;;;;;;0.90;0.90;;;;;;;;;;5094725;28;20222;-60
2023/03/18 14:52:27;;;;;;;1.35;1.33;;;;;;;;;;5103352;28;20206;-61
2023/03/18 14:54:55;;;;;;;3.13;1.75;;;;;;;;;;5088603;28;20221;-60
2023/03/18 14:57:22;;;;;;;1.13;1.13;;;;;;;;;;5088160;28;20206;-60
2023/03/18 14:59:50;;;;;;;1.50;1.33;;;;;;;;;;5089026;28;20197;-59